• Join FlightAware (Why Join?)
  • Login
  • US Flag 
 
04:51AM EST


 

Airport Tracker/Info


-or-


 

Live Flight TrackerFlight Track Log ✈ N822BB ✈ 15-Apr-2014 ✈ KLGA - KOXC

Flight Track Log - Related Links

Times and Time Zones

All times are in EDT time to prevent confusion due to time zone crossing. See the N822BB flight status page for this flight to view local times or setup timezone preferences in your user account.

Time Position Orientation Groundspeed Altitude Reporting Facility
EDT Latitude Longitude Course Direction KTS MPH feet Rate Location/Type
11:58PM 40.7667 -73.8333 49° Northeast 115 132 1,800  Level New York TRACON
11:59PM 40.8000 -73.7833 49° Northeast 176 203 2,600 600 Climbing New York TRACON
12:00AM 40.8333 -73.7500 37° Northeast 181 208 3,000 240 Climbing New York TRACON
12:01AM 40.8833 -73.7167 27° Northeast 195 224 3,100  Climbing New York TRACON
12:02AM 40.9333 -73.6667 37° Northeast 195 224 3,000  Descending New York TRACON
12:03AM 40.8933 -73.6267 49° Northeast  Level FlightAware Approximate
12:03AM 40.9833 -73.6333 27° Northeast 197 227 3,100  Level New York TRACON
12:04AM 41.0167 -73.5833 49° Northeast 195 224 3,100 -60 Level New York TRACON
12:05AM 41.0667 -73.5333 37° Northeast 194 223 3,000 -60 Descending New York TRACON
12:06AM 41.1167 -73.5000 27° Northeast 197 227 3,000  Level New York TRACON
12:07AM 41.1500 -73.4667 37° Northeast 201 231 3,000  Level New York TRACON
12:08AM 41.2000 -73.4167 37° Northeast 196 226 3,100  Climbing New York TRACON
12:09AM 41.2500 -73.3833 27° Northeast 203 234 3,100 -60 Level New York TRACON
12:10AM 41.3000 -73.3500 27° Northeast 200 230 3,000  Descending New York TRACON
12:11AM 41.3500 -73.3167 27° Northeast 202 232 3,100  Climbing New York TRACON
12:12AM 41.4000 -73.2833 27° Northeast 198 228 3,100  Level New York TRACON
12:13AM 41.4500 -73.2333 37° Northeast 202 232 3,100  Level New York TRACON
12:14AM 41.5000 -73.2000 27° Northeast 199 229 3,100 -60 Level New York TRACON
12:15AM 41.5333 -73.1667 37° Northeast 199 229 3,000 -60 Descending New York TRACON
12:16AM 41.5833 -73.1333 27° Northeast 196 226 3,000  Level New York TRACON
12:18AM 41.5022 -73.1302 178° South  Level FlightAware Approximate
12:25AM 41.4786 -73.1352 North  Level Estimated
12:26AM 41.4786 -73.1352 North  Level Estimated
12:27AM 41.4786 -73.1352 North  Level Estimated
12:28AM 41.4786 -73.1352 North  Level Estimated
12:29AM 41.4786 -73.1352 North  Level Estimated
12:30AM 41.4786 -73.1352 North  Level Estimated